sensor_id;sensor_type;location;lat;lon;timestamp;temperature;humidity
22742;DHT22;11538;48.884;8.696;2023-08-06T00:02:08;16.20;99.90
22742;DHT22;11538;48.884;8.696;2023-08-06T00:04:35;16.10;99.90
22742;DHT22;11538;48.884;8.696;2023-08-06T00:07:03;16.10;99.90
22742;DHT22;11538;48.884;8.696;2023-08-06T00:09:30;16.10;99.90
22742;DHT22;11538;48.884;8.696;2023-08-06T00:11:57;16.10;99.90
22742;DHT22;11538;48.884;8.696;2023-08-06T00:14:24;16.10;99.90
22742;DHT22;11538;48.884;8.696;2023-08-06T00:16:51;16.00;99.90
22742;DHT22;11538;48.884;8.696;2023-08-06T00:19:18;16.00;99.90
22742;DHT22;11538;48.884;8.696;2023-08-06T00:21:45;16.00;99.90
22742;DHT22;11538;48.884;8.696;2023-08-06T00:24:12;15.90;99.90
22742;DHT22;11538;48.884;8.696;2023-08-06T00:26:39;16.00;99.90
22742;DHT22;11538;48.884;8.696;2023-08-06T00:29:06;15.90;99.90
22742;DHT22;11538;48.884;8.696;2023-08-06T00:31:33;15.90;99.90
22742;DHT22;11538;48.884;8.696;2023-08-06T00:34:00;16.00;99.90
22742;DHT22;11538;48.884;8.696;2023-08-06T00:36:27;15.90;99.90
22742;DHT22;11538;48.884;8.696;2023-08-06T00:38:54;15.90;99.90
22742;DHT22;11538;48.884;8.696;2023-08-06T00:41:22;15.90;99.90
22742;DHT22;11538;48.884;8.696;2023-08-06T00:43:49;15.90;99.90
22742;DHT22;11538;48.884;8.696;2023-08-06T00:46:16;15.90;99.90
22742;DHT22;11538;48.884;8.696;2023-08-06T00:48:43;16.00;99.90
22742;DHT22;11538;48.884;8.696;2023-08-06T00:51:10;15.90;99.90
22742;DHT22;11538;48.884;8.696;2023-08-06T00:53:38;15.90;99.90
22742;DHT22;11538;48.884;8.696;2023-08-06T00:56:07;15.90;99.90
22742;DHT22;11538;48.884;8.696;2023-08-06T00:58:36;15.90;99.90
22742;DHT22;11538;48.884;8.696;2023-08-06T01:01:04;15.90;99.90
22742;DHT22;11538;48.884;8.696;2023-08-06T01:03:31;15.90;99.90
22742;DHT22;11538;48.884;8.696;2023-08-06T01:05:58;15.90;99.90
22742;DHT22;11538;48.884;8.696;2023-08-06T01:14:41;15.90;99.90
22742;DHT22;11538;48.884;8.696;2023-08-06T01:17:17;15.90;99.90
22742;DHT22;11538;48.884;8.696;2023-08-06T01:19:45;15.90;99.90
22742;DHT22;11538;48.884;8.696;2023-08-06T01:22:12;15.90;99.90
22742;DHT22;11538;48.884;8.696;2023-08-06T01:24:40;15.90;99.90
22742;DHT22;11538;48.884;8.696;2023-08-06T01:27:30;15.90;99.90
22742;DHT22;11538;48.884;8.696;2023-08-06T01:30:29;15.90;99.90
22742;DHT22;11538;48.884;8.696;2023-08-06T01:33:02;15.90;99.90
22742;DHT22;11538;48.884;8.696;2023-08-06T01:35:32;15.90;99.90
22742;DHT22;11538;48.884;8.696;2023-08-06T01:38:01;15.80;99.90
22742;DHT22;11538;48.884;8.696;2023-08-06T01:40:30;15.80;99.90
22742;DHT22;11538;48.884;8.696;2023-08-06T01:42:57;15.80;99.90
22742;DHT22;11538;48.884;8.696;2023-08-06T01:45:24;15.80;99.90
22742;DHT22;11538;48.884;8.696;2023-08-06T01:47:51;15.70;99.90
22742;DHT22;11538;48.884;8.696;2023-08-06T01:50:18;15.70;99.90
22742;DHT22;11538;48.884;8.696;2023-08-06T01:52:45;15.70;99.90
22742;DHT22;11538;48.884;8.696;2023-08-06T01:55:12;15.70;99.90
22742;DHT22;11538;48.884;8.696;2023-08-06T01:57:38;15.70;99.90
22742;DHT22;11538;48.884;8.696;2023-08-06T02:00:07;15.70;99.90
22742;DHT22;11538;48.884;8.696;2023-08-06T02:02:34;15.70;99.90
22742;DHT22;11538;48.884;8.696;2023-08-06T02:05:02;15.70;99.90
22742;DHT22;11538;48.884;8.696;2023-08-06T02:07:29;15.70;99.90
22742;DHT22;11538;48.884;8.696;2023-08-06T02:09:56;15.70;99.90
22742;DHT22;11538;48.884;8.696;2023-08-06T02:12:23;15.70;99.90
22742;DHT22;11538;48.884;8.696;2023-08-06T02:14:50;15.70;99.90
22742;DHT22;11538;48.884;8.696;2023-08-06T02:17:17;15.70;99.90
22742;DHT22;11538;48.884;8.696;2023-08-06T02:19:44;15.70;99.90
22742;DHT22;11538;48.884;8.696;2023-08-06T02:22:11;15.70;99.90
22742;DHT22;11538;48.884;8.696;2023-08-06T02:24:38;15.80;99.90
22742;DHT22;11538;48.884;8.696;2023-08-06T02:27:05;15.80;99.90
22742;DHT22;11538;48.884;8.696;2023-08-06T02:29:32;15.80;99.90
22742;DHT22;11538;48.884;8.696;2023-08-06T02:31:59;15.80;99.90
22742;DHT22;11538;48.884;8.696;2023-08-06T02:34:28;15.80;99.90
22742;DHT22;11538;48.884;8.696;2023-08-06T02:36:56;15.80;99.90
22742;DHT22;11538;48.884;8.696;2023-08-06T02:39:23;15.80;99.90
22742;DHT22;11538;48.884;8.696;2023-08-06T02:41:50;15.80;99.90
22742;DHT22;11538;48.884;8.696;2023-08-06T02:44:17;15.70;99.90
22742;DHT22;11538;48.884;8.696;2023-08-06T02:46:45;15.80;99.90
22742;DHT22;11538;48.884;8.696;2023-08-06T02:49:12;15.80;99.90
22742;DHT22;11538;48.884;8.696;2023-08-06T02:51:39;15.80;99.90
22742;DHT22;11538;48.884;8.696;2023-08-06T02:54:06;15.80;99.90
22742;DHT22;11538;48.884;8.696;2023-08-06T02:56:33;15.80;99.90
22742;DHT22;11538;48.884;8.696;2023-08-06T02:59:00;15.80;99.90
22742;DHT22;11538;48.884;8.696;2023-08-06T03:01:27;15.90;99.90
22742;DHT22;11538;48.884;8.696;2023-08-06T03:03:55;15.90;99.90
22742;DHT22;11538;48.884;8.696;2023-08-06T03:06:23;15.80;99.90
22742;DHT22;11538;48.884;8.696;2023-08-06T03:08:50;15.80;99.90
22742;DHT22;11538;48.884;8.696;2023-08-06T03:11:17;15.80;99.90
22742;DHT22;11538;48.884;8.696;2023-08-06T03:13:44;15.80;99.90
22742;DHT22;11538;48.884;8.696;2023-08-06T03:16:11;15.80;99.90
22742;DHT22;11538;48.884;8.696;2023-08-06T03:18:38;15.80;99.90
22742;DHT22;11538;48.884;8.696;2023-08-06T03:21:05;15.80;99.90
22742;DHT22;11538;48.884;8.696;2023-08-06T03:23:32;15.80;99.90
22742;DHT22;11538;48.884;8.696;2023-08-06T03:26:02;15.90;99.90
22742;DHT22;11538;48.884;8.696;2023-08-06T03:28:30;15.90;99.90
22742;DHT22;11538;48.884;8.696;2023-08-06T03:31:01;16.00;99.90
22742;DHT22;11538;48.884;8.696;2023-08-06T03:33:29;16.00;99.90
22742;DHT22;11538;48.884;8.696;2023-08-06T03:35:56;16.10;99.90
22742;DHT22;11538;48.884;8.696;2023-08-06T03:38:23;16.20;99.90
22742;DHT22;11538;48.884;8.696;2023-08-06T03:40:50;16.20;99.90
22742;DHT22;11538;48.884;8.696;2023-08-06T03:43:17;16.20;99.90
22742;DHT22;11538;48.884;8.696;2023-08-06T03:45:44;16.30;99.90
22742;DHT22;11538;48.884;8.696;2023-08-06T03:48:11;16.30;99.90
22742;DHT22;11538;48.884;8.696;2023-08-06T03:50:38;16.20;99.90
22742;DHT22;11538;48.884;8.696;2023-08-06T03:53:05;16.30;99.90
22742;DHT22;11538;48.884;8.696;2023-08-06T03:55:32;16.20;99.90
22742;DHT22;11538;48.884;8.696;2023-08-06T03:57:59;16.30;99.90
22742;DHT22;11538;48.884;8.696;2023-08-06T04:00:26;16.30;99.90
22742;DHT22;11538;48.884;8.696;2023-08-06T04:02:53;16.20;99.90
22742;DHT22;11538;48.884;8.696;2023-08-06T04:05:21;16.20;99.90
22742;DHT22;11538;48.884;8.696;2023-08-06T04:07:48;16.20;99.90
22742;DHT22;11538;48.884;8.696;2023-08-06T04:10:14;16.20;99.90
22742;DHT22;11538;48.884;8.696;2023-08-06T04:12:41;16.20;99.90
22742;DHT22;11538;48.884;8.696;2023-08-06T04:15:08;16.20;99.90
22742;DHT22;11538;48.884;8.696;2023-08-06T04:17:35;16.20;99.90
22742;DHT22;11538;48.884;8.696;2023-08-06T04:20:02;16.20;99.90
22742;DHT22;11538;48.884;8.696;2023-08-06T04:22:30;16.20;99.90
22742;DHT22;11538;48.884;8.696;2023-08-06T04:24:56;16.20;99.90
22742;DHT22;11538;48.884;8.696;2023-08-06T04:27:23;16.20;99.90
22742;DHT22;11538;48.884;8.696;2023-08-06T04:29:50;16.20;99.90
22742;DHT22;11538;48.884;8.696;2023-08-06T04:32:17;16.20;99.90
22742;DHT22;11538;48.884;8.696;2023-08-06T04:34:46;16.20;99.90
22742;DHT22;11538;48.884;8.696;2023-08-06T04:37:14;16.30;99.90
22742;DHT22;11538;48.884;8.696;2023-08-06T04:39:41;16.30;99.90
22742;DHT22;11538;48.884;8.696;2023-08-06T04:42:08;16.30;99.90
22742;DHT22;11538;48.884;8.696;2023-08-06T04:44:35;16.30;99.90
22742;DHT22;11538;48.884;8.696;2023-08-06T04:47:02;16.30;99.90
22742;DHT22;11538;48.884;8.696;2023-08-06T04:49:29;16.30;99.90
22742;DHT22;11538;48.884;8.696;2023-08-06T04:51:56;16.30;99.90
22742;DHT22;11538;48.884;8.696;2023-08-06T04:54:23;16.30;99.90
22742;DHT22;11538;48.884;8.696;2023-08-06T04:56:49;16.30;99.90
22742;DHT22;11538;48.884;8.696;2023-08-06T04:59:16;16.30;99.90
22742;DHT22;11538;48.884;8.696;2023-08-06T05:01:43;16.30;99.90
22742;DHT22;11538;48.884;8.696;2023-08-06T05:04:10;16.30;99.90
22742;DHT22;11538;48.884;8.696;2023-08-06T05:06:37;16.30;99.90
22742;DHT22;11538;48.884;8.696;2023-08-06T05:09:08;16.20;99.90
22742;DHT22;11538;48.884;8.696;2023-08-06T05:11:34;16.20;99.90
22742;DHT22;11538;48.884;8.696;2023-08-06T05:14:01;16.30;99.90
22742;DHT22;11538;48.884;8.696;2023-08-06T05:16:28;16.30;99.90
22742;DHT22;11538;48.884;8.696;2023-08-06T05:18:55;16.30;99.90
22742;DHT22;11538;48.884;8.696;2023-08-06T05:21:22;16.30;99.90
22742;DHT22;11538;48.884;8.696;2023-08-06T05:23:49;16.30;99.90
22742;DHT22;11538;48.884;8.696;2023-08-06T05:26:16;16.30;99.90
22742;DHT22;11538;48.884;8.696;2023-08-06T05:28:45;16.30;99.90
22742;DHT22;11538;48.884;8.696;2023-08-06T05:31:12;16.30;99.90
22742;DHT22;11538;48.884;8.696;2023-08-06T05:33:40;16.30;99.90
22742;DHT22;11538;48.884;8.696;2023-08-06T05:36:06;16.30;99.90
22742;DHT22;11538;48.884;8.696;2023-08-06T05:38:33;16.30;99.90
22742;DHT22;11538;48.884;8.696;2023-08-06T05:41:01;16.30;99.90
22742;DHT22;11538;48.884;8.696;2023-08-06T05:43:28;16.30;99.90
22742;DHT22;11538;48.884;8.696;2023-08-06T05:45:55;16.30;99.90
22742;DHT22;11538;48.884;8.696;2023-08-06T05:48:23;16.30;99.90
22742;DHT22;11538;48.884;8.696;2023-08-06T05:50:52;16.30;99.90
22742;DHT22;11538;48.884;8.696;2023-08-06T05:53:19;16.30;99.90
22742;DHT22;11538;48.884;8.696;2023-08-06T05:55:47;16.30;99.90
22742;DHT22;11538;48.884;8.696;2023-08-06T05:58:14;16.20;99.90
22742;DHT22;11538;48.884;8.696;2023-08-06T06:00:41;16.30;99.90
22742;DHT22;11538;48.884;8.696;2023-08-06T06:03:08;16.30;99.90
22742;DHT22;11538;48.884;8.696;2023-08-06T06:05:38;16.30;99.90
22742;DHT22;11538;48.884;8.696;2023-08-06T06:08:05;16.20;99.90
22742;DHT22;11538;48.884;8.696;2023-08-06T06:10:32;16.30;99.90
22742;DHT22;11538;48.884;8.696;2023-08-06T06:12:59;16.30;99.90
22742;DHT22;11538;48.884;8.696;2023-08-06T06:15:26;16.30;99.90
22742;DHT22;11538;48.884;8.696;2023-08-06T06:17:54;16.30;99.90
22742;DHT22;11538;48.884;8.696;2023-08-06T06:20:21;16.30;99.90
22742;DHT22;11538;48.884;8.696;2023-08-06T06:22:47;16.30;99.90
22742;DHT22;11538;48.884;8.696;2023-08-06T06:25:14;16.30;99.90
22742;DHT22;11538;48.884;8.696;2023-08-06T06:27:41;16.30;99.90
22742;DHT22;11538;48.884;8.696;2023-08-06T06:30:08;16.40;99.90
22742;DHT22;11538;48.884;8.696;2023-08-06T06:32:36;16.30;99.90
22742;DHT22;11538;48.884;8.696;2023-08-06T06:35:03;16.40;99.90
22742;DHT22;11538;48.884;8.696;2023-08-06T06:37:31;16.40;99.90
22742;DHT22;11538;48.884;8.696;2023-08-06T06:39:58;16.40;99.90
22742;DHT22;11538;48.884;8.696;2023-08-06T06:42:25;16.40;99.90
22742;DHT22;11538;48.884;8.696;2023-08-06T06:44:52;16.40;99.90
22742;DHT22;11538;48.884;8.696;2023-08-06T06:47:19;16.40;99.90
22742;DHT22;11538;48.884;8.696;2023-08-06T06:49:46;16.40;99.90
22742;DHT22;11538;48.884;8.696;2023-08-06T06:52:14;16.40;99.90
22742;DHT22;11538;48.884;8.696;2023-08-06T06:54:41;16.40;99.90
22742;DHT22;11538;48.884;8.696;2023-08-06T06:57:08;16.40;99.90
22742;DHT22;11538;48.884;8.696;2023-08-06T06:59:35;16.50;99.90
22742;DHT22;11538;48.884;8.696;2023-08-06T07:02:01;16.50;99.90
22742;DHT22;11538;48.884;8.696;2023-08-06T07:04:28;16.50;99.90
22742;DHT22;11538;48.884;8.696;2023-08-06T07:06:55;16.50;99.90
22742;DHT22;11538;48.884;8.696;2023-08-06T07:09:22;16.50;99.90
22742;DHT22;11538;48.884;8.696;2023-08-06T07:11:49;16.50;99.90
22742;DHT22;11538;48.884;8.696;2023-08-06T07:14:17;16.50;99.90
22742;DHT22;11538;48.884;8.696;2023-08-06T07:16:44;16.50;99.90
22742;DHT22;11538;48.884;8.696;2023-08-06T07:19:11;16.50;99.90
22742;DHT22;11538;48.884;8.696;2023-08-06T07:21:38;16.60;99.90
22742;DHT22;11538;48.884;8.696;2023-08-06T07:24:05;16.60;99.90
22742;DHT22;11538;48.884;8.696;2023-08-06T07:26:32;16.60;99.90
22742;DHT22;11538;48.884;8.696;2023-08-06T07:28:59;16.60;99.90
22742;DHT22;11538;48.884;8.696;2023-08-06T07:31:26;16.60;99.90
22742;DHT22;11538;48.884;8.696;2023-08-06T07:33:53;16.60;99.90
22742;DHT22;11538;48.884;8.696;2023-08-06T07:36:20;16.60;99.90
22742;DHT22;11538;48.884;8.696;2023-08-06T07:38:47;16.60;99.90
22742;DHT22;11538;48.884;8.696;2023-08-06T07:41:18;16.60;99.90
22742;DHT22;11538;48.884;8.696;2023-08-06T07:43:45;16.60;99.90
22742;DHT22;11538;48.884;8.696;2023-08-06T07:46:12;16.70;99.90
22742;DHT22;11538;48.884;8.696;2023-08-06T07:48:40;16.80;99.90
22742;DHT22;11538;48.884;8.696;2023-08-06T07:51:07;16.80;99.90
22742;DHT22;11538;48.884;8.696;2023-08-06T07:53:34;16.90;99.90
22742;DHT22;11538;48.884;8.696;2023-08-06T07:56:01;17.00;99.90
22742;DHT22;11538;48.884;8.696;2023-08-06T07:58:29;17.00;99.90
22742;DHT22;11538;48.884;8.696;2023-08-06T08:00:56;17.00;99.90
22742;DHT22;11538;48.884;8.696;2023-08-06T08:03:23;17.00;99.90
22742;DHT22;11538;48.884;8.696;2023-08-06T08:05:50;17.10;99.90
22742;DHT22;11538;48.884;8.696;2023-08-06T08:08:24;17.10;99.90
22742;DHT22;11538;48.884;8.696;2023-08-06T08:10:52;17.10;99.90
22742;DHT22;11538;48.884;8.696;2023-08-06T08:13:19;17.10;99.90
22742;DHT22;11538;48.884;8.696;2023-08-06T08:15:46;17.10;99.90
22742;DHT22;11538;48.884;8.696;2023-08-06T08:18:13;17.10;99.90
22742;DHT22;11538;48.884;8.696;2023-08-06T08:20:40;17.10;99.90
22742;DHT22;11538;48.884;8.696;2023-08-06T08:23:06;17.10;99.90
22742;DHT22;11538;48.884;8.696;2023-08-06T08:25:33;17.20;99.90
22742;DHT22;11538;48.884;8.696;2023-08-06T08:28:00;17.10;99.90
22742;DHT22;11538;48.884;8.696;2023-08-06T08:30:27;17.20;99.90
22742;DHT22;11538;48.884;8.696;2023-08-06T08:32:54;17.20;99.90
22742;DHT22;11538;48.884;8.696;2023-08-06T08:35:21;17.10;99.90
22742;DHT22;11538;48.884;8.696;2023-08-06T08:37:48;17.20;99.90
22742;DHT22;11538;48.884;8.696;2023-08-06T08:40:16;17.20;99.90
22742;DHT22;11538;48.884;8.696;2023-08-06T08:42:43;17.30;99.90
22742;DHT22;11538;48.884;8.696;2023-08-06T08:45:14;17.30;99.90
22742;DHT22;11538;48.884;8.696;2023-08-06T08:47:42;17.50;99.90
22742;DHT22;11538;48.884;8.696;2023-08-06T08:50:10;17.60;99.90
22742;DHT22;11538;48.884;8.696;2023-08-06T08:52:39;17.70;99.90
22742;DHT22;11538;48.884;8.696;2023-08-06T08:55:07;17.70;99.90
22742;DHT22;11538;48.884;8.696;2023-08-06T08:57:35;17.80;99.90
22742;DHT22;11538;48.884;8.696;2023-08-06T09:00:03;17.80;99.90
22742;DHT22;11538;48.884;8.696;2023-08-06T09:02:32;17.80;99.90
22742;DHT22;11538;48.884;8.696;2023-08-06T09:05:01;17.80;99.90
22742;DHT22;11538;48.884;8.696;2023-08-06T09:07:34;17.80;99.90
22742;DHT22;11538;48.884;8.696;2023-08-06T09:10:07;17.90;99.90
22742;DHT22;11538;48.884;8.696;2023-08-06T09:12:38;17.90;99.90
22742;DHT22;11538;48.884;8.696;2023-08-06T09:15:05;17.90;99.90
22742;DHT22;11538;48.884;8.696;2023-08-06T09:17:33;17.80;99.90
22742;DHT22;11538;48.884;8.696;2023-08-06T09:20:09;17.80;99.90
22742;DHT22;11538;48.884;8.696;2023-08-06T09:22:40;17.70;99.90
22742;DHT22;11538;48.884;8.696;2023-08-06T09:25:08;17.60;99.90
22742;DHT22;11538;48.884;8.696;2023-08-06T09:27:40;17.50;99.90
22742;DHT22;11538;48.884;8.696;2023-08-06T09:30:07;17.50;99.90
22742;DHT22;11538;48.884;8.696;2023-08-06T09:32:48;17.40;99.90
22742;DHT22;11538;48.884;8.696;2023-08-06T09:35:18;17.40;99.90
22742;DHT22;11538;48.884;8.696;2023-08-06T09:37:46;17.40;99.90
22742;DHT22;11538;48.884;8.696;2023-08-06T09:40:31;17.30;99.90
22742;DHT22;11538;48.884;8.696;2023-08-06T09:42:59;17.40;99.90
22742;DHT22;11538;48.884;8.696;2023-08-06T09:45:38;17.40;99.90
22742;DHT22;11538;48.884;8.696;2023-08-06T09:48:07;17.40;99.90
22742;DHT22;11538;48.884;8.696;2023-08-06T09:50:36;17.40;99.90
22742;DHT22;11538;48.884;8.696;2023-08-06T09:53:07;17.50;99.90
22742;DHT22;11538;48.884;8.696;2023-08-06T09:55:38;17.60;99.90
22742;DHT22;11538;48.884;8.696;2023-08-06T09:58:06;17.70;99.90
22742;DHT22;11538;48.884;8.696;2023-08-06T10:00:33;17.80;99.90
22742;DHT22;11538;48.884;8.696;2023-08-06T10:03:06;17.90;99.90
22742;DHT22;11538;48.884;8.696;2023-08-06T10:05:35;17.90;99.90
22742;DHT22;11538;48.884;8.696;2023-08-06T10:08:03;18.00;99.90
22742;DHT22;11538;48.884;8.696;2023-08-06T10:10:34;18.10;99.90
22742;DHT22;11538;48.884;8.696;2023-08-06T10:13:03;18.10;99.90
22742;DHT22;11538;48.884;8.696;2023-08-06T10:15:33;18.30;99.90
22742;DHT22;11538;48.884;8.696;2023-08-06T10:18:03;18.30;99.90
22742;DHT22;11538;48.884;8.696;2023-08-06T10:20:36;18.30;99.90
22742;DHT22;11538;48.884;8.696;2023-08-06T10:23:05;18.30;99.90
22742;DHT22;11538;48.884;8.696;2023-08-06T10:25:35;18.20;99.90
22742;DHT22;11538;48.884;8.696;2023-08-06T10:28:07;18.10;99.90
22742;DHT22;11538;48.884;8.696;2023-08-06T10:30:47;18.00;99.90
22742;DHT22;11538;48.884;8.696;2023-08-06T10:33:14;17.90;99.90
22742;DHT22;11538;48.884;8.696;2023-08-06T10:35:47;17.80;99.90
22742;DHT22;11538;48.884;8.696;2023-08-06T10:38:24;17.70;99.90
22742;DHT22;11538;48.884;8.696;2023-08-06T10:43:31;17.50;99.90
22742;DHT22;11538;48.884;8.696;2023-08-06T10:46:03;17.30;99.90
22742;DHT22;11538;48.884;8.696;2023-08-06T10:48:36;17.40;99.90
22742;DHT22;11538;48.884;8.696;2023-08-06T10:51:10;17.40;99.90
22742;DHT22;11538;48.884;8.696;2023-08-06T10:53:45;17.40;99.90
22742;DHT22;11538;48.884;8.696;2023-08-06T10:56:24;17.40;99.90
22742;DHT22;11538;48.884;8.696;2023-08-06T10:58:57;17.40;99.90
22742;DHT22;11538;48.884;8.696;2023-08-06T11:01:24;17.40;99.90
22742;DHT22;11538;48.884;8.696;2023-08-06T11:03:56;17.50;99.90
22742;DHT22;11538;48.884;8.696;2023-08-06T11:06:27;17.60;99.90
22742;DHT22;11538;48.884;8.696;2023-08-06T11:08:55;17.70;99.90
22742;DHT22;11538;48.884;8.696;2023-08-06T11:11:23;17.70;99.90
22742;DHT22;11538;48.884;8.696;2023-08-06T11:13:51;17.60;99.90
22742;DHT22;11538;48.884;8.696;2023-08-06T11:16:20;17.50;99.90
22742;DHT22;11538;48.884;8.696;2023-08-06T11:18:52;17.50;99.90
22742;DHT22;11538;48.884;8.696;2023-08-06T11:21:21;17.30;99.90
22742;DHT22;11538;48.884;8.696;2023-08-06T11:23:49;17.30;99.90
22742;DHT22;11538;48.884;8.696;2023-08-06T11:26:20;17.20;99.90
22742;DHT22;11538;48.884;8.696;2023-08-06T11:28:49;17.10;99.90
22742;DHT22;11538;48.884;8.696;2023-08-06T11:31:23;16.90;99.90
22742;DHT22;11538;48.884;8.696;2023-08-06T11:33:54;16.80;99.90
22742;DHT22;11538;48.884;8.696;2023-08-06T11:36:31;16.70;99.90
22742;DHT22;11538;48.884;8.696;2023-08-06T11:39:03;16.60;99.90
22742;DHT22;11538;48.884;8.696;2023-08-06T11:41:33;16.50;99.90
22742;DHT22;11538;48.884;8.696;2023-08-06T11:44:00;16.50;99.90
22742;DHT22;11538;48.884;8.696;2023-08-06T11:46:27;16.40;99.90
22742;DHT22;11538;48.884;8.696;2023-08-06T11:48:56;16.30;99.90
22742;DHT22;11538;48.884;8.696;2023-08-06T11:51:28;16.30;99.90
22742;DHT22;11538;48.884;8.696;2023-08-06T11:53:58;16.30;99.90
22742;DHT22;11538;48.884;8.696;2023-08-06T11:56:26;16.20;99.90
22742;DHT22;11538;48.884;8.696;2023-08-06T11:58:57;16.20;99.90
22742;DHT22;11538;48.884;8.696;2023-08-06T12:01:25;16.20;99.90
22742;DHT22;11538;48.884;8.696;2023-08-06T12:03:52;16.30;99.90
22742;DHT22;11538;48.884;8.696;2023-08-06T12:06:27;16.20;99.90
22742;DHT22;11538;48.884;8.696;2023-08-06T12:08:54;16.20;99.90
22742;DHT22;11538;48.884;8.696;2023-08-06T12:11:21;16.20;99.90
22742;DHT22;11538;48.884;8.696;2023-08-06T12:13:54;16.20;99.90
22742;DHT22;11538;48.884;8.696;2023-08-06T12:16:23;16.30;99.90
22742;DHT22;11538;48.884;8.696;2023-08-06T12:18:50;16.40;99.90
22742;DHT22;11538;48.884;8.696;2023-08-06T12:21:17;16.50;99.90
22742;DHT22;11538;48.884;8.696;2023-08-06T12:23:45;16.50;99.90
22742;DHT22;11538;48.884;8.696;2023-08-06T12:26:12;16.60;99.90
22742;DHT22;11538;48.884;8.696;2023-08-06T12:28:39;16.70;99.90
22742;DHT22;11538;48.884;8.696;2023-08-06T12:31:05;16.70;99.90
22742;DHT22;11538;48.884;8.696;2023-08-06T12:33:33;16.70;99.90
22742;DHT22;11538;48.884;8.696;2023-08-06T12:36:00;16.70;99.90
22742;DHT22;11538;48.884;8.696;2023-08-06T12:38:27;16.70;99.90
22742;DHT22;11538;48.884;8.696;2023-08-06T12:40:54;16.80;99.90
22742;DHT22;11538;48.884;8.696;2023-08-06T12:43:21;16.90;99.90
22742;DHT22;11538;48.884;8.696;2023-08-06T12:45:47;17.00;99.90
22742;DHT22;11538;48.884;8.696;2023-08-06T12:48:15;17.10;99.90
22742;DHT22;11538;48.884;8.696;2023-08-06T12:50:42;17.20;99.90
22742;DHT22;11538;48.884;8.696;2023-08-06T12:53:09;17.20;99.90
22742;DHT22;11538;48.884;8.696;2023-08-06T12:55:36;17.30;99.90
22742;DHT22;11538;48.884;8.696;2023-08-06T12:58:03;17.30;99.90
22742;DHT22;11538;48.884;8.696;2023-08-06T13:00:30;17.30;99.90
22742;DHT22;11538;48.884;8.696;2023-08-06T13:02:57;17.30;99.90
22742;DHT22;11538;48.884;8.696;2023-08-06T13:05:24;17.30;99.90
22742;DHT22;11538;48.884;8.696;2023-08-06T13:07:52;17.30;99.90
22742;DHT22;11538;48.884;8.696;2023-08-06T13:10:19;17.30;99.90
22742;DHT22;11538;48.884;8.696;2023-08-06T13:12:47;17.20;99.90
22742;DHT22;11538;48.884;8.696;2023-08-06T13:15:14;17.20;99.90
22742;DHT22;11538;48.884;8.696;2023-08-06T13:17:43;17.10;99.90
22742;DHT22;11538;48.884;8.696;2023-08-06T13:20:11;17.10;99.90
22742;DHT22;11538;48.884;8.696;2023-08-06T13:22:37;17.00;99.90
22742;DHT22;11538;48.884;8.696;2023-08-06T13:25:05;16.90;99.90
22742;DHT22;11538;48.884;8.696;2023-08-06T13:27:32;16.80;99.90
22742;DHT22;11538;48.884;8.696;2023-08-06T13:29:59;16.90;99.90
22742;DHT22;11538;48.884;8.696;2023-08-06T13:32:26;16.90;99.90
22742;DHT22;11538;48.884;8.696;2023-08-06T13:34:53;17.00;99.90
22742;DHT22;11538;48.884;8.696;2023-08-06T13:37:20;17.00;99.90
22742;DHT22;11538;48.884;8.696;2023-08-06T13:39:47;17.10;99.90
22742;DHT22;11538;48.884;8.696;2023-08-06T13:42:14;17.10;99.90
22742;DHT22;11538;48.884;8.696;2023-08-06T13:44:41;17.00;99.90
22742;DHT22;11538;48.884;8.696;2023-08-06T13:47:08;17.00;99.90
22742;DHT22;11538;48.884;8.696;2023-08-06T13:49:35;17.00;99.90
22742;DHT22;11538;48.884;8.696;2023-08-06T13:52:01;17.00;99.90
22742;DHT22;11538;48.884;8.696;2023-08-06T13:54:47;16.90;99.90
22742;DHT22;11538;48.884;8.696;2023-08-06T13:57:14;16.90;99.90
22742;DHT22;11538;48.884;8.696;2023-08-06T13:59:41;17.30;99.90
22742;DHT22;11538;48.884;8.696;2023-08-06T14:02:08;17.90;99.90
22742;DHT22;11538;48.884;8.696;2023-08-06T14:04:35;18.50;99.90
22742;DHT22;11538;48.884;8.696;2023-08-06T14:07:04;18.90;99.90
22742;DHT22;11538;48.884;8.696;2023-08-06T14:09:31;19.20;99.90
22742;DHT22;11538;48.884;8.696;2023-08-06T14:11:58;19.30;99.90
22742;DHT22;11538;48.884;8.696;2023-08-06T14:14:25;19.40;99.90
22742;DHT22;11538;48.884;8.696;2023-08-06T14:16:53;19.30;99.90
22742;DHT22;11538;48.884;8.696;2023-08-06T14:19:21;19.30;99.90
22742;DHT22;11538;48.884;8.696;2023-08-06T14:21:49;19.10;99.90
22742;DHT22;11538;48.884;8.696;2023-08-06T14:24:18;19.00;99.90
22742;DHT22;11538;48.884;8.696;2023-08-06T14:26:45;18.80;99.90
22742;DHT22;11538;48.884;8.696;2023-08-06T14:29:12;18.70;99.90
22742;DHT22;11538;48.884;8.696;2023-08-06T14:31:40;18.60;99.90
22742;DHT22;11538;48.884;8.696;2023-08-06T14:34:08;18.60;99.90
22742;DHT22;11538;48.884;8.696;2023-08-06T14:36:35;18.50;99.90
22742;DHT22;11538;48.884;8.696;2023-08-06T14:39:02;18.40;99.90
22742;DHT22;11538;48.884;8.696;2023-08-06T14:41:29;18.40;99.90
22742;DHT22;11538;48.884;8.696;2023-08-06T14:43:56;18.50;99.90
22742;DHT22;11538;48.884;8.696;2023-08-06T14:46:23;18.70;99.90
22742;DHT22;11538;48.884;8.696;2023-08-06T14:48:51;18.80;99.90
22742;DHT22;11538;48.884;8.696;2023-08-06T14:51:18;19.00;99.90
22742;DHT22;11538;48.884;8.696;2023-08-06T14:53:47;19.30;99.90
22742;DHT22;11538;48.884;8.696;2023-08-06T14:56:14;19.60;99.90
22742;DHT22;11538;48.884;8.696;2023-08-06T14:58:41;19.70;99.90
22742;DHT22;11538;48.884;8.696;2023-08-06T15:01:08;19.60;99.90
22742;DHT22;11538;48.884;8.696;2023-08-06T15:03:35;19.60;99.90
22742;DHT22;11538;48.884;8.696;2023-08-06T15:06:02;19.60;99.90
22742;DHT22;11538;48.884;8.696;2023-08-06T15:08:29;19.50;99.90
22742;DHT22;11538;48.884;8.696;2023-08-06T15:10:56;19.50;99.90
22742;DHT22;11538;48.884;8.696;2023-08-06T15:13:23;19.40;99.90
22742;DHT22;11538;48.884;8.696;2023-08-06T15:15:50;19.40;99.90
22742;DHT22;11538;48.884;8.696;2023-08-06T15:18:17;19.30;99.90
22742;DHT22;11538;48.884;8.696;2023-08-06T15:20:45;19.20;99.90
22742;DHT22;11538;48.884;8.696;2023-08-06T15:23:13;19.10;99.90
22742;DHT22;11538;48.884;8.696;2023-08-06T15:25:41;18.90;99.90
22742;DHT22;11538;48.884;8.696;2023-08-06T15:28:08;18.80;99.90
22742;DHT22;11538;48.884;8.696;2023-08-06T15:30:36;18.60;99.90
22742;DHT22;11538;48.884;8.696;2023-08-06T15:33:03;18.40;99.90
22742;DHT22;11538;48.884;8.696;2023-08-06T15:35:30;18.20;99.90
22742;DHT22;11538;48.884;8.696;2023-08-06T15:37:57;18.00;99.90
22742;DHT22;11538;48.884;8.696;2023-08-06T15:40:23;17.90;99.90
22742;DHT22;11538;48.884;8.696;2023-08-06T15:42:51;17.80;99.90
22742;DHT22;11538;48.884;8.696;2023-08-06T15:45:18;17.60;99.90